sensor_id;sensor_type;location;lat;lon;timestamp;P1;durP1;ratioP1;P2;durP2;ratioP2
77573;SDS011;66710;48.868;9.080;2024-03-02T00:00:11;10.35;;;6.57;;
77573;SDS011;66710;48.868;9.080;2024-03-02T00:05:06;12.18;;;6.75;;
77573;SDS011;66710;48.868;9.080;2024-03-02T00:07:32;10.82;;;6.95;;
77573;SDS011;66710;48.868;9.080;2024-03-02T00:09:58;12.13;;;7.28;;
77573;SDS011;66710;48.868;9.080;2024-03-02T00:12:24;11.07;;;6.15;;
77573;SDS011;66710;48.868;9.080;2024-03-02T00:14:50;8.95;;;5.57;;
77573;SDS011;66710;48.868;9.080;2024-03-02T00:17:21;11.80;;;6.13;;
77573;SDS011;66710;48.868;9.080;2024-03-02T00:19:50;12.38;;;6.18;;
77573;SDS011;66710;48.868;9.080;2024-03-02T00:22:16;10.75;;;6.43;;
77573;SDS011;66710;48.868;9.080;2024-03-02T00:24:41;11.00;;;6.20;;
77573;SDS011;66710;48.868;9.080;2024-03-02T00:27:07;11.70;;;5.97;;
77573;SDS011;66710;48.868;9.080;2024-03-02T00:29:36;11.35;;;6.22;;
77573;SDS011;66710;48.868;9.080;2024-03-02T00:32:02;11.63;;;6.65;;
77573;SDS011;66710;48.868;9.080;2024-03-02T00:34:27;10.18;;;6.20;;
77573;SDS011;66710;48.868;9.080;2024-03-02T00:36:53;10.75;;;6.43;;
77573;SDS011;66710;48.868;9.080;2024-03-02T00:39:22;13.85;;;7.13;;
77573;SDS011;66710;48.868;9.080;2024-03-02T00:41:48;12.57;;;6.55;;
77573;SDS011;66710;48.868;9.080;2024-03-02T00:44:13;11.23;;;5.75;;
77573;SDS011;66710;48.868;9.080;2024-03-02T00:46:41;12.25;;;6.40;;
77573;SDS011;66710;48.868;9.080;2024-03-02T00:51:47;11.13;;;6.00;;
77573;SDS011;66710;48.868;9.080;2024-03-02T00:54:14;9.80;;;6.13;;
77573;SDS011;66710;48.868;9.080;2024-03-02T00:56:40;9.07;;;5.32;;
77573;SDS011;66710;48.868;9.080;2024-03-02T00:59:06;10.52;;;5.53;;
77573;SDS011;66710;48.868;9.080;2024-03-02T01:01:35;11.30;;;6.10;;
77573;SDS011;66710;48.868;9.080;2024-03-02T01:04:00;13.90;;;7.07;;
77573;SDS011;66710;48.868;9.080;2024-03-02T01:06:26;10.93;;;5.50;;
77573;SDS011;66710;48.868;9.080;2024-03-02T01:08:51;11.45;;;6.40;;
77573;SDS011;66710;48.868;9.080;2024-03-02T01:11:17;11.85;;;6.05;;
77573;SDS011;66710;48.868;9.080;2024-03-02T01:13:48;10.73;;;5.75;;
77573;SDS011;66710;48.868;9.080;2024-03-02T01:16:13;10.95;;;6.00;;
77573;SDS011;66710;48.868;9.080;2024-03-02T01:18:40;11.25;;;6.10;;
77573;SDS011;66710;48.868;9.080;2024-03-02T01:21:06;12.82;;;6.20;;
77573;SDS011;66710;48.868;9.080;2024-03-02T01:23:31;9.02;;;5.47;;
77573;SDS011;66710;48.868;9.080;2024-03-02T01:25:56;10.93;;;5.68;;
77573;SDS011;66710;48.868;9.080;2024-03-02T01:28:22;13.93;;;6.05;;
77573;SDS011;66710;48.868;9.080;2024-03-02T01:30:47;9.77;;;5.57;;
77573;SDS011;66710;48.868;9.080;2024-03-02T01:33:13;11.23;;;6.50;;
77573;SDS011;66710;48.868;9.080;2024-03-02T01:35:38;13.00;;;6.53;;
77573;SDS011;66710;48.868;9.080;2024-03-02T01:38:04;13.18;;;6.75;;
77573;SDS011;66710;48.868;9.080;2024-03-02T01:40:31;12.88;;;5.25;;
77573;SDS011;66710;48.868;9.080;2024-03-02T01:42:57;9.93;;;5.50;;
77573;SDS011;66710;48.868;9.080;2024-03-02T01:45:25;9.77;;;5.28;;
77573;SDS011;66710;48.868;9.080;2024-03-02T01:47:50;11.77;;;6.68;;
77573;SDS011;66710;48.868;9.080;2024-03-02T01:50:16;11.98;;;6.22;;
77573;SDS011;66710;48.868;9.080;2024-03-02T01:52:49;11.15;;;5.07;;
77573;SDS011;66710;48.868;9.080;2024-03-02T01:55:15;11.30;;;6.40;;
77573;SDS011;66710;48.868;9.080;2024-03-02T01:57:40;11.68;;;5.72;;
77573;SDS011;66710;48.868;9.080;2024-03-02T02:00:06;12.20;;;5.22;;
77573;SDS011;66710;48.868;9.080;2024-03-02T02:02:32;10.90;;;5.63;;
77573;SDS011;66710;48.868;9.080;2024-03-02T02:04:57;13.07;;;6.85;;
77573;SDS011;66710;48.868;9.080;2024-03-02T02:07:23;12.20;;;5.68;;
77573;SDS011;66710;48.868;9.080;2024-03-02T02:09:48;8.43;;;4.20;;
77573;SDS011;66710;48.868;9.080;2024-03-02T02:12:13;14.30;;;7.15;;
77573;SDS011;66710;48.868;9.080;2024-03-02T02:14:40;13.85;;;6.72;;
77573;SDS011;66710;48.868;9.080;2024-03-02T02:17:12;14.95;;;6.43;;
77573;SDS011;66710;48.868;9.080;2024-03-02T02:19:37;14.32;;;6.75;;
77573;SDS011;66710;48.868;9.080;2024-03-02T02:22:02;13.55;;;6.38;;
77573;SDS011;66710;48.868;9.080;2024-03-02T02:24:28;12.93;;;6.93;;
77573;SDS011;66710;48.868;9.080;2024-03-02T02:26:53;13.73;;;7.13;;
77573;SDS011;66710;48.868;9.080;2024-03-02T02:29:18;14.07;;;7.70;;
77573;SDS011;66710;48.868;9.080;2024-03-02T02:31:43;13.55;;;7.57;;
77573;SDS011;66710;48.868;9.080;2024-03-02T02:34:09;13.65;;;7.07;;
77573;SDS011;66710;48.868;9.080;2024-03-02T02:36:34;14.57;;;7.57;;
77573;SDS011;66710;48.868;9.080;2024-03-02T02:39:02;12.60;;;6.05;;
77573;SDS011;66710;48.868;9.080;2024-03-02T02:41:29;13.27;;;6.90;;
77573;SDS011;66710;48.868;9.080;2024-03-02T02:43:54;13.75;;;6.72;;
77573;SDS011;66710;48.868;9.080;2024-03-02T02:46:20;14.80;;;7.10;;
77573;SDS011;66710;48.868;9.080;2024-03-02T02:48:45;14.70;;;7.22;;
77573;SDS011;66710;48.868;9.080;2024-03-02T02:51:10;13.55;;;7.22;;
77573;SDS011;66710;48.868;9.080;2024-03-02T02:53:36;13.40;;;7.03;;
77573;SDS011;66710;48.868;9.080;2024-03-02T02:56:05;12.63;;;5.82;;
77573;SDS011;66710;48.868;9.080;2024-03-02T02:58:30;14.55;;;6.80;;
77573;SDS011;66710;48.868;9.080;2024-03-02T03:00:56;12.68;;;6.30;;
77573;SDS011;66710;48.868;9.080;2024-03-02T03:03:21;10.73;;;5.40;;
77573;SDS011;66710;48.868;9.080;2024-03-02T03:05:47;12.10;;;6.13;;
77573;SDS011;66710;48.868;9.080;2024-03-02T03:08:12;13.90;;;6.60;;
77573;SDS011;66710;48.868;9.080;2024-03-02T03:10:37;13.30;;;6.50;;
77573;SDS011;66710;48.868;9.080;2024-03-02T03:13:02;13.25;;;6.43;;
77573;SDS011;66710;48.868;9.080;2024-03-02T03:15:28;13.20;;;6.15;;
77573;SDS011;66710;48.868;9.080;2024-03-02T03:17:53;15.18;;;6.10;;
77573;SDS011;66710;48.868;9.080;2024-03-02T03:20:18;13.70;;;6.45;;
77573;SDS011;66710;48.868;9.080;2024-03-02T03:22:46;14.10;;;6.30;;
77573;SDS011;66710;48.868;9.080;2024-03-02T03:25:11;9.63;;;5.20;;
77573;SDS011;66710;48.868;9.080;2024-03-02T03:27:37;13.73;;;6.70;;
77573;SDS011;66710;48.868;9.080;2024-03-02T03:30:02;15.05;;;6.43;;
77573;SDS011;66710;48.868;9.080;2024-03-02T03:32:28;14.07;;;7.13;;
77573;SDS011;66710;48.868;9.080;2024-03-02T03:34:53;13.75;;;6.38;;
77573;SDS011;66710;48.868;9.080;2024-03-02T03:37:19;14.95;;;7.18;;
77573;SDS011;66710;48.868;9.080;2024-03-02T03:39:44;14.65;;;6.93;;
77573;SDS011;66710;48.868;9.080;2024-03-02T03:42:09;12.38;;;6.07;;
77573;SDS011;66710;48.868;9.080;2024-03-02T03:44:34;13.25;;;6.35;;
77573;SDS011;66710;48.868;9.080;2024-03-02T03:47:00;11.40;;;6.65;;
77573;SDS011;66710;48.868;9.080;2024-03-02T03:49:27;15.15;;;6.72;;
77573;SDS011;66710;48.868;9.080;2024-03-02T03:51:52;12.98;;;6.72;;
77573;SDS011;66710;48.868;9.080;2024-03-02T03:54:18;15.90;;;7.50;;
77573;SDS011;66710;48.868;9.080;2024-03-02T03:56:43;15.10;;;7.65;;
77573;SDS011;66710;48.868;9.080;2024-03-02T03:59:08;14.88;;;7.43;;
77573;SDS011;66710;48.868;9.080;2024-03-02T04:01:34;14.68;;;7.15;;
77573;SDS011;66710;48.868;9.080;2024-03-02T04:03:59;14.20;;;6.30;;
77573;SDS011;66710;48.868;9.080;2024-03-02T04:06:24;9.05;;;5.05;;
77573;SDS011;66710;48.868;9.080;2024-03-02T04:08:50;9.90;;;5.20;;
77573;SDS011;66710;48.868;9.080;2024-03-02T04:11:15;12.65;;;6.07;;
77573;SDS011;66710;48.868;9.080;2024-03-02T04:13:41;15.73;;;7.97;;
77573;SDS011;66710;48.868;9.080;2024-03-02T04:16:06;12.65;;;6.47;;
77573;SDS011;66710;48.868;9.080;2024-03-02T04:18:31;15.52;;;7.40;;
77573;SDS011;66710;48.868;9.080;2024-03-02T04:21:00;11.30;;;5.70;;
77573;SDS011;66710;48.868;9.080;2024-03-02T04:23:26;13.60;;;5.95;;
77573;SDS011;66710;48.868;9.080;2024-03-02T04:25:51;11.52;;;5.43;;
77573;SDS011;66710;48.868;9.080;2024-03-02T04:28:16;16.23;;;7.63;;
77573;SDS011;66710;48.868;9.080;2024-03-02T04:30:42;13.63;;;6.63;;
77573;SDS011;66710;48.868;9.080;2024-03-02T04:33:07;14.20;;;6.55;;
77573;SDS011;66710;48.868;9.080;2024-03-02T04:35:35;14.13;;;5.85;;
77573;SDS011;66710;48.868;9.080;2024-03-02T04:38:02;12.23;;;6.05;;
77573;SDS011;66710;48.868;9.080;2024-03-02T04:40:28;9.65;;;4.45;;
77573;SDS011;66710;48.868;9.080;2024-03-02T04:42:53;16.38;;;6.13;;
77573;SDS011;66710;48.868;9.080;2024-03-02T04:45:19;12.40;;;5.60;;
77573;SDS011;66710;48.868;9.080;2024-03-02T04:47:44;10.80;;;5.18;;
77573;SDS011;66710;48.868;9.080;2024-03-02T04:50:09;11.90;;;5.72;;
77573;SDS011;66710;48.868;9.080;2024-03-02T04:52:35;12.30;;;5.90;;
77573;SDS011;66710;48.868;9.080;2024-03-02T04:55:00;12.27;;;6.18;;
77573;SDS011;66710;48.868;9.080;2024-03-02T04:57:49;13.52;;;6.00;;
77573;SDS011;66710;48.868;9.080;2024-03-02T05:00:16;13.80;;;6.07;;
77573;SDS011;66710;48.868;9.080;2024-03-02T05:02:42;10.75;;;5.70;;
77573;SDS011;66710;48.868;9.080;2024-03-02T05:05:07;12.75;;;6.35;;
77573;SDS011;66710;48.868;9.080;2024-03-02T05:07:32;13.73;;;7.10;;
77573;SDS011;66710;48.868;9.080;2024-03-02T05:09:58;12.70;;;6.97;;
77573;SDS011;66710;48.868;9.080;2024-03-02T05:12:23;14.35;;;6.72;;
77573;SDS011;66710;48.868;9.080;2024-03-02T05:15:07;12.90;;;6.75;;
77573;SDS011;66710;48.868;9.080;2024-03-02T05:17:33;12.95;;;6.47;;
77573;SDS011;66710;48.868;9.080;2024-03-02T05:19:58;13.82;;;6.47;;
77573;SDS011;66710;48.868;9.080;2024-03-02T05:22:23;12.73;;;6.30;;
77573;SDS011;66710;48.868;9.080;2024-03-02T05:24:49;16.10;;;7.25;;
77573;SDS011;66710;48.868;9.080;2024-03-02T05:27:14;14.93;;;6.68;;
77573;SDS011;66710;48.868;9.080;2024-03-02T05:29:39;15.52;;;7.32;;
77573;SDS011;66710;48.868;9.080;2024-03-02T05:32:05;11.98;;;5.40;;
77573;SDS011;66710;48.868;9.080;2024-03-02T05:34:30;12.10;;;5.60;;
77573;SDS011;66710;48.868;9.080;2024-03-02T05:36:57;14.80;;;6.28;;
77573;SDS011;66710;48.868;9.080;2024-03-02T05:39:23;12.20;;;6.38;;
77573;SDS011;66710;48.868;9.080;2024-03-02T05:41:48;8.70;;;4.50;;
77573;SDS011;66710;48.868;9.080;2024-03-02T05:44:13;19.15;;;7.47;;
77573;SDS011;66710;48.868;9.080;2024-03-02T05:46:40;15.32;;;6.72;;
77573;SDS011;66710;48.868;9.080;2024-03-02T05:49:05;14.02;;;6.15;;
77573;SDS011;66710;48.868;9.080;2024-03-02T05:51:32;12.05;;;6.22;;
77573;SDS011;66710;48.868;9.080;2024-03-02T05:53:58;13.68;;;7.28;;
77573;SDS011;66710;48.868;9.080;2024-03-02T05:56:23;14.38;;;6.88;;
77573;SDS011;66710;48.868;9.080;2024-03-02T05:58:48;14.50;;;6.20;;
77573;SDS011;66710;48.868;9.080;2024-03-02T06:01:37;16.35;;;7.22;;
77573;SDS011;66710;48.868;9.080;2024-03-02T06:04:03;15.32;;;7.60;;
77573;SDS011;66710;48.868;9.080;2024-03-02T06:06:28;14.15;;;7.05;;
77573;SDS011;66710;48.868;9.080;2024-03-02T06:08:54;14.68;;;6.95;;
77573;SDS011;66710;48.868;9.080;2024-03-02T06:11:19;14.40;;;7.72;;
77573;SDS011;66710;48.868;9.080;2024-03-02T06:13:45;14.82;;;6.47;;
77573;SDS011;66710;48.868;9.080;2024-03-02T06:16:10;9.60;;;4.72;;
77573;SDS011;66710;48.868;9.080;2024-03-02T06:18:36;10.38;;;4.82;;
77573;SDS011;66710;48.868;9.080;2024-03-02T06:21:01;13.02;;;5.72;;
77573;SDS011;66710;48.868;9.080;2024-03-02T06:23:27;5.70;;;2.80;;
77573;SDS011;66710;48.868;9.080;2024-03-02T06:25:52;10.10;;;4.15;;
77573;SDS011;66710;48.868;9.080;2024-03-02T06:28:18;8.27;;;4.53;;
77573;SDS011;66710;48.868;9.080;2024-03-02T06:30:43;8.45;;;4.63;;
77573;SDS011;66710;48.868;9.080;2024-03-02T06:33:09;11.70;;;6.13;;
77573;SDS011;66710;48.868;9.080;2024-03-02T06:35:34;13.23;;;6.05;;
77573;SDS011;66710;48.868;9.080;2024-03-02T06:38:00;12.07;;;5.80;;
77573;SDS011;66710;48.868;9.080;2024-03-02T06:40:26;15.82;;;6.55;;
77573;SDS011;66710;48.868;9.080;2024-03-02T06:42:51;14.38;;;5.85;;
77573;SDS011;66710;48.868;9.080;2024-03-02T06:45:16;12.63;;;6.15;;
77573;SDS011;66710;48.868;9.080;2024-03-02T06:47:42;9.23;;;4.15;;
77573;SDS011;66710;48.868;9.080;2024-03-02T06:50:07;10.98;;;5.70;;
77573;SDS011;66710;48.868;9.080;2024-03-02T06:52:34;10.43;;;4.90;;
77573;SDS011;66710;48.868;9.080;2024-03-02T06:55:00;11.20;;;5.47;;
77573;SDS011;66710;48.868;9.080;2024-03-02T06:57:25;13.40;;;6.15;;
77573;SDS011;66710;48.868;9.080;2024-03-02T06:59:51;13.82;;;6.22;;
77573;SDS011;66710;48.868;9.080;2024-03-02T07:02:19;9.90;;;4.57;;
77573;SDS011;66710;48.868;9.080;2024-03-02T07:04:45;13.40;;;5.60;;
77573;SDS011;66710;48.868;9.080;2024-03-02T07:07:10;12.82;;;5.90;;
77573;SDS011;66710;48.868;9.080;2024-03-02T07:09:36;13.23;;;6.47;;
77573;SDS011;66710;48.868;9.080;2024-03-02T07:12:01;15.82;;;7.00;;
77573;SDS011;66710;48.868;9.080;2024-03-02T07:14:26;7.68;;;3.85;;
77573;SDS011;66710;48.868;9.080;2024-03-02T07:17:11;13.85;;;5.95;;
77573;SDS011;66710;48.868;9.080;2024-03-02T07:19:37;9.30;;;4.78;;
77573;SDS011;66710;48.868;9.080;2024-03-02T07:22:05;12.38;;;5.78;;
77573;SDS011;66710;48.868;9.080;2024-03-02T07:24:32;9.82;;;4.90;;
77573;SDS011;66710;48.868;9.080;2024-03-02T07:26:57;10.52;;;4.65;;
77573;SDS011;66710;48.868;9.080;2024-03-02T07:29:22;12.50;;;5.68;;
77573;SDS011;66710;48.868;9.080;2024-03-02T07:31:47;10.10;;;5.15;;
77573;SDS011;66710;48.868;9.080;2024-03-02T07:34:13;9.85;;;4.35;;
77573;SDS011;66710;48.868;9.080;2024-03-02T07:36:38;9.57;;;5.00;;
77573;SDS011;66710;48.868;9.080;2024-03-02T07:39:04;13.73;;;6.72;;
77573;SDS011;66710;48.868;9.080;2024-03-02T07:41:29;12.77;;;6.43;;
77573;SDS011;66710;48.868;9.080;2024-03-02T07:43:54;10.98;;;5.72;;
77573;SDS011;66710;48.868;9.080;2024-03-02T07:46:19;13.85;;;6.60;;
77573;SDS011;66710;48.868;9.080;2024-03-02T07:48:45;13.38;;;7.20;;
77573;SDS011;66710;48.868;9.080;2024-03-02T07:51:10;13.35;;;6.18;;
77573;SDS011;66710;48.868;9.080;2024-03-02T07:53:35;13.15;;;5.40;;
77573;SDS011;66710;48.868;9.080;2024-03-02T07:56:01;10.57;;;5.72;;
77573;SDS011;66710;48.868;9.080;2024-03-02T07:58:27;11.43;;;5.78;;
77573;SDS011;66710;48.868;9.080;2024-03-02T08:00:52;12.20;;;6.75;;
77573;SDS011;66710;48.868;9.080;2024-03-02T08:03:18;11.48;;;6.30;;
77573;SDS011;66710;48.868;9.080;2024-03-02T08:05:44;13.98;;;6.95;;
77573;SDS011;66710;48.868;9.080;2024-03-02T08:08:09;7.47;;;4.30;;
77573;SDS011;66710;48.868;9.080;2024-03-02T08:10:34;12.25;;;6.47;;
77573;SDS011;66710;48.868;9.080;2024-03-02T08:13:00;12.63;;;6.40;;
77573;SDS011;66710;48.868;9.080;2024-03-02T08:15:26;12.80;;;6.80;;
77573;SDS011;66710;48.868;9.080;2024-03-02T08:17:51;11.23;;;6.43;;
77573;SDS011;66710;48.868;9.080;2024-03-02T08:20:17;13.23;;;6.38;;
77573;SDS011;66710;48.868;9.080;2024-03-02T08:22:42;12.10;;;6.15;;
77573;SDS011;66710;48.868;9.080;2024-03-02T08:25:07;10.82;;;5.57;;
77573;SDS011;66710;48.868;9.080;2024-03-02T08:27:33;13.15;;;6.45;;
77573;SDS011;66710;48.868;9.080;2024-03-02T08:29:58;11.15;;;6.13;;
77573;SDS011;66710;48.868;9.080;2024-03-02T08:32:24;11.43;;;5.90;;
77573;SDS011;66710;48.868;9.080;2024-03-02T08:34:49;10.65;;;5.57;;
77573;SDS011;66710;48.868;9.080;2024-03-02T08:37:14;10.65;;;5.82;;
77573;SDS011;66710;48.868;9.080;2024-03-02T08:39:40;10.07;;;5.20;;
77573;SDS011;66710;48.868;9.080;2024-03-02T08:42:05;9.10;;;4.80;;
77573;SDS011;66710;48.868;9.080;2024-03-02T08:44:31;9.13;;;4.50;;
77573;SDS011;66710;48.868;9.080;2024-03-02T08:46:56;9.85;;;5.32;;
77573;SDS011;66710;48.868;9.080;2024-03-02T08:49:21;8.90;;;4.65;;
77573;SDS011;66710;48.868;9.080;2024-03-02T08:51:47;9.18;;;5.25;;
77573;SDS011;66710;48.868;9.080;2024-03-02T08:56:44;8.70;;;4.32;;
77573;SDS011;66710;48.868;9.080;2024-03-02T08:59:09;11.90;;;5.40;;
77573;SDS011;66710;48.868;9.080;2024-03-02T09:01:35;11.73;;;5.90;;
77573;SDS011;66710;48.868;9.080;2024-03-02T09:04:00;10.18;;;5.00;;
77573;SDS011;66710;48.868;9.080;2024-03-02T09:06:25;7.53;;;4.45;;
77573;SDS011;66710;48.868;9.080;2024-03-02T09:08:50;9.82;;;4.10;;
77573;SDS011;66710;48.868;9.080;2024-03-02T09:11:16;6.90;;;4.20;;
77573;SDS011;66710;48.868;9.080;2024-03-02T09:13:42;7.32;;;4.00;;
77573;SDS011;66710;48.868;9.080;2024-03-02T09:16:07;8.57;;;4.95;;
77573;SDS011;66710;48.868;9.080;2024-03-02T09:18:35;7.55;;;4.63;;
77573;SDS011;66710;48.868;9.080;2024-03-02T09:21:01;7.55;;;4.47;;
77573;SDS011;66710;48.868;9.080;2024-03-02T09:23:26;7.97;;;4.60;;
77573;SDS011;66710;48.868;9.080;2024-03-02T09:25:51;7.47;;;4.40;;
77573;SDS011;66710;48.868;9.080;2024-03-02T09:28:16;7.93;;;4.30;;
77573;SDS011;66710;48.868;9.080;2024-03-02T09:30:42;7.45;;;4.50;;
77573;SDS011;66710;48.868;9.080;2024-03-02T09:33:07;8.93;;;4.60;;
77573;SDS011;66710;48.868;9.080;2024-03-02T09:35:32;9.55;;;5.57;;
77573;SDS011;66710;48.868;9.080;2024-03-02T09:37:58;7.57;;;4.50;;
77573;SDS011;66710;48.868;9.080;2024-03-02T09:40:23;7.05;;;4.45;;
77573;SDS011;66710;48.868;9.080;2024-03-02T09:42:49;7.15;;;4.18;;
77573;SDS011;66710;48.868;9.080;2024-03-02T09:45:20;6.25;;;3.47;;
77573;SDS011;66710;48.868;9.080;2024-03-02T09:47:48;6.50;;;3.67;;
77573;SDS011;66710;48.868;9.080;2024-03-02T09:50:14;5.78;;;3.47;;
77573;SDS011;66710;48.868;9.080;2024-03-02T09:52:40;6.18;;;3.03;;
77573;SDS011;66710;48.868;9.080;2024-03-02T09:55:07;5.32;;;2.90;;
77573;SDS011;66710;48.868;9.080;2024-03-02T09:57:33;7.22;;;3.40;;
77573;SDS011;66710;48.868;9.080;2024-03-02T09:59:58;6.40;;;3.40;;
77573;SDS011;66710;48.868;9.080;2024-03-02T10:02:23;6.40;;;3.67;;
77573;SDS011;66710;48.868;9.080;2024-03-02T10:04:49;6.82;;;3.83;;
77573;SDS011;66710;48.868;9.080;2024-03-02T10:07:15;7.22;;;3.83;;
77573;SDS011;66710;48.868;9.080;2024-03-02T10:09:42;5.72;;;3.25;;
77573;SDS011;66710;48.868;9.080;2024-03-02T10:12:10;5.95;;;3.28;;
77573;SDS011;66710;48.868;9.080;2024-03-02T10:14:36;7.25;;;3.88;;
77573;SDS011;66710;48.868;9.080;2024-03-02T10:17:06;6.53;;;3.55;;
77573;SDS011;66710;48.868;9.080;2024-03-02T10:19:32;5.30;;;2.75;;
77573;SDS011;66710;48.868;9.080;2024-03-02T10:22:00;5.93;;;3.00;;
77573;SDS011;66710;48.868;9.080;2024-03-02T10:24:26;7.60;;;3.80;;
77573;SDS011;66710;48.868;9.080;2024-03-02T10:26:51;5.50;;;3.00;;
77573;SDS011;66710;48.868;9.080;2024-03-02T10:29:17;5.50;;;3.22;;
77573;SDS011;66710;48.868;9.080;2024-03-02T10:31:43;5.13;;;2.92;;
77573;SDS011;66710;48.868;9.080;2024-03-02T10:34:13;5.43;;;3.13;;
77573;SDS011;66710;48.868;9.080;2024-03-02T10:36:42;5.78;;;3.00;;
77573;SDS011;66710;48.868;9.080;2024-03-02T10:39:09;4.97;;;2.80;;
77573;SDS011;66710;48.868;9.080;2024-03-02T10:41:35;6.90;;;2.85;;
77573;SDS011;66710;48.868;9.080;2024-03-02T10:44:05;6.15;;;3.45;;
77573;SDS011;66710;48.868;9.080;2024-03-02T10:46:32;4.85;;;3.00;;
77573;SDS011;66710;48.868;9.080;2024-03-02T10:48:58;5.40;;;2.95;;
77573;SDS011;66710;48.868;9.080;2024-03-02T10:51:25;5.03;;;2.90;;
77573;SDS011;66710;48.868;9.080;2024-03-02T10:53:52;5.95;;;3.45;;
77573;SDS011;66710;48.868;9.080;2024-03-02T10:56:21;7.30;;;3.45;;
77573;SDS011;66710;48.868;9.080;2024-03-02T10:58:54;5.88;;;3.28;;
77573;SDS011;66710;48.868;9.080;2024-03-02T11:03:50;4.32;;;2.97;;
77573;SDS011;66710;48.868;9.080;2024-03-02T11:06:16;4.90;;;2.90;;
77573;SDS011;66710;48.868;9.080;2024-03-02T11:08:42;4.22;;;2.60;;
77573;SDS011;66710;48.868;9.080;2024-03-02T11:11:15;4.38;;;2.85;;
77573;SDS011;66710;48.868;9.080;2024-03-02T11:13:46;5.53;;;3.05;;
77573;SDS011;66710;48.868;9.080;2024-03-02T11:16:25;3.75;;;2.08;;
77573;SDS011;66710;48.868;9.080;2024-03-02T11:19:02;5.47;;;3.40;;
77573;SDS011;66710;48.868;9.080;2024-03-02T11:21:30;5.47;;;2.47;;
77573;SDS011;66710;48.868;9.080;2024-03-02T11:23:57;4.22;;;2.45;;
77573;SDS011;66710;48.868;9.080;2024-03-02T11:26:23;4.97;;;2.17;;
77573;SDS011;66710;48.868;9.080;2024-03-02T11:28:49;4.95;;;2.88;;
77573;SDS011;66710;48.868;9.080;2024-03-02T11:31:14;5.28;;;3.20;;
77573;SDS011;66710;48.868;9.080;2024-03-02T11:33:40;5.72;;;3.67;;
77573;SDS011;66710;48.868;9.080;2024-03-02T11:36:08;5.10;;;3.05;;
77573;SDS011;66710;48.868;9.080;2024-03-02T11:38:34;5.10;;;3.20;;
77573;SDS011;66710;48.868;9.080;2024-03-02T11:41:01;5.45;;;3.15;;
77573;SDS011;66710;48.868;9.080;2024-03-02T11:43:28;5.18;;;2.78;;
77573;SDS011;66710;48.868;9.080;2024-03-02T11:45:58;5.30;;;3.15;;
77573;SDS011;66710;48.868;9.080;2024-03-02T11:48:31;5.70;;;3.13;;
77573;SDS011;66710;48.868;9.080;2024-03-02T11:50:58;5.45;;;3.05;;
77573;SDS011;66710;48.868;9.080;2024-03-02T11:53:24;5.50;;;3.20;;
77573;SDS011;66710;48.868;9.080;2024-03-02T11:55:52;5.13;;;3.00;;
77573;SDS011;66710;48.868;9.080;2024-03-02T11:58:20;3.30;;;1.88;;
77573;SDS011;66710;48.868;9.080;2024-03-02T12:00:50;3.65;;;1.67;;
77573;SDS011;66710;48.868;9.080;2024-03-02T12:03:16;3.05;;;1.38;;
77573;SDS011;66710;48.868;9.080;2024-03-02T12:05:42;3.22;;;1.80;;
77573;SDS011;66710;48.868;9.080;2024-03-02T12:08:07;3.85;;;2.28;;
77573;SDS011;66710;48.868;9.080;2024-03-02T12:10:33;3.95;;;2.28;;
77573;SDS011;66710;48.868;9.080;2024-03-02T12:13:00;2.50;;;1.40;;
77573;SDS011;66710;48.868;9.080;2024-03-02T12:15:27;3.08;;;1.40;;
77573;SDS011;66710;48.868;9.080;2024-03-02T12:17:54;2.28;;;1.50;;
77573;SDS011;66710;48.868;9.080;2024-03-02T12:20:20;2.92;;;1.50;;
77573;SDS011;66710;48.868;9.080;2024-03-02T12:22:48;2.88;;;1.48;;
77573;SDS011;66710;48.868;9.080;2024-03-02T12:25:14;1.98;;;1.25;;
77573;SDS011;66710;48.868;9.080;2024-03-02T12:27:41;2.40;;;1.48;;
77573;SDS011;66710;48.868;9.080;2024-03-02T12:30:06;2.85;;;1.45;;
77573;SDS011;66710;48.868;9.080;2024-03-02T12:32:35;1.48;;;0.93;;
77573;SDS011;66710;48.868;9.080;2024-03-02T12:35:03;2.30;;;1.50;;
77573;SDS011;66710;48.868;9.080;2024-03-02T12:37:29;2.13;;;1.10;;
77573;SDS011;66710;48.868;9.080;2024-03-02T12:39:55;2.85;;;1.40;;
77573;SDS011;66710;48.868;9.080;2024-03-02T12:42:20;1.38;;;0.95;;
77573;SDS011;66710;48.868;9.080;2024-03-02T12:44:45;1.55;;;0.70;;
77573;SDS011;66710;48.868;9.080;2024-03-02T12:47:11;1.40;;;0.90;;
77573;SDS011;66710;48.868;9.080;2024-03-02T12:49:39;1.63;;;1.20;;
77573;SDS011;66710;48.868;9.080;2024-03-02T12:52:05;1.92;;;1.13;;
77573;SDS011;66710;48.868;9.080;2024-03-02T12:54:31;2.08;;;0.98;;
77573;SDS011;66710;48.868;9.080;2024-03-02T12:56:58;2.03;;;1.20;;
77573;SDS011;66710;48.868;9.080;2024-03-02T12:59:23;2.13;;;1.20;;
77573;SDS011;66710;48.868;9.080;2024-03-02T13:01:54;1.70;;;0.95;;
77573;SDS011;66710;48.868;9.080;2024-03-02T13:04:24;3.08;;;1.20;;
77573;SDS011;66710;48.868;9.080;2024-03-02T13:06:50;2.10;;;1.30;;
77573;SDS011;66710;48.868;9.080;2024-03-02T13:09:16;1.83;;;1.17;;
77573;SDS011;66710;48.868;9.080;2024-03-02T13:11:42;1.23;;;1.05;;
77573;SDS011;66710;48.868;9.080;2024-03-02T13:14:07;1.52;;;0.98;;
77573;SDS011;66710;48.868;9.080;2024-03-02T13:16:38;1.48;;;0.98;;
77573;SDS011;66710;48.868;9.080;2024-03-02T13:19:06;1.17;;;0.98;;
77573;SDS011;66710;48.868;9.080;2024-03-02T13:21:43;1.50;;;1.00;;
77573;SDS011;66710;48.868;9.080;2024-03-02T13:24:09;1.50;;;1.02;;
77573;SDS011;66710;48.868;9.080;2024-03-02T13:26:34;1.73;;;1.10;;
77573;SDS011;66710;48.868;9.080;2024-03-02T13:28:59;1.45;;;1.02;;
77573;SDS011;66710;48.868;9.080;2024-03-02T13:31:25;1.20;;;0.90;;
77573;SDS011;66710;48.868;9.080;2024-03-02T13:33:50;2.38;;;1.10;;
77573;SDS011;66710;48.868;9.080;2024-03-02T13:36:15;1.23;;;1.00;;
77573;SDS011;66710;48.868;9.080;2024-03-02T13:38:41;1.60;;;1.00;;
77573;SDS011;66710;48.868;9.080;2024-03-02T13:41:06;1.30;;;1.00;;
77573;SDS011;66710;48.868;9.080;2024-03-02T13:43:32;1.90;;;1.30;;
77573;SDS011;66710;48.868;9.080;2024-03-02T13:46:00;1.45;;;1.00;;
77573;SDS011;66710;48.868;9.080;2024-03-02T13:48:27;2.97;;;1.23;;
77573;SDS011;66710;48.868;9.080;2024-03-02T13:50:52;2.75;;;1.30;;
77573;SDS011;66710;48.868;9.080;2024-03-02T13:53:18;1.50;;;1.17;;
77573;SDS011;66710;48.868;9.080;2024-03-02T13:55:44;1.38;;;1.13;;
77573;SDS011;66710;48.868;9.080;2024-03-02T13:58:10;2.38;;;1.27;;
77573;SDS011;66710;48.868;9.080;2024-03-02T14:00:36;2.40;;;1.25;;
77573;SDS011;66710;48.868;9.080;2024-03-02T14:03:03;2.58;;;1.52;;
77573;SDS011;66710;48.868;9.080;2024-03-02T14:05:30;2.03;;;1.40;;
77573;SDS011;66710;48.868;9.080;2024-03-02T14:07:55;3.53;;;1.65;;
77573;SDS011;66710;48.868;9.080;2024-03-02T14:10:21;3.42;;;1.50;;
77573;SDS011;66710;48.868;9.080;2024-03-02T14:12:48;2.65;;;1.45;;
77573;SDS011;66710;48.868;9.080;2024-03-02T14:15:13;2.17;;;1.45;;
77573;SDS011;66710;48.868;9.080;2024-03-02T14:17:38;1.98;;;1.10;;
77573;SDS011;66710;48.868;9.080;2024-03-02T14:20:04;2.80;;;1.40;;
77573;SDS011;66710;48.868;9.080;2024-03-02T14:22:30;2.95;;;1.50;;
77573;SDS011;66710;48.868;9.080;2024-03-02T14:24:56;2.10;;;1.15;;
77573;SDS011;66710;48.868;9.080;2024-03-02T14:27:22;1.48;;;1.00;;
77573;SDS011;66710;48.868;9.080;2024-03-02T14:29:47;2.88;;;1.50;;
77573;SDS011;66710;48.868;9.080;2024-03-02T14:32:12;2.00;;;1.40;;
77573;SDS011;66710;48.868;9.080;2024-03-02T14:34:38;1.95;;;1.40;;
77573;SDS011;66710;48.868;9.080;2024-03-02T14:37:03;2.85;;;1.30;;
77573;SDS011;66710;48.868;9.080;2024-03-02T14:39:28;2.25;;;1.55;;
77573;SDS011;66710;48.868;9.080;2024-03-02T14:41:54;2.53;;;1.50;;
77573;SDS011;66710;48.868;9.080;2024-03-02T14:44:20;1.92;;;1.40;;